sensor_id;sensor_type;location;lat;lon;timestamp;temperature;humidity
21207;DHT22;10761;48.532;8.026;2023-11-21T00:02:22;9.40;99.90
21207;DHT22;10761;48.532;8.026;2023-11-21T00:04:51;9.40;99.90
21207;DHT22;10761;48.532;8.026;2023-11-21T00:07:17;9.40;99.90
21207;DHT22;10761;48.532;8.026;2023-11-21T00:09:43;9.30;99.90
21207;DHT22;10761;48.532;8.026;2023-11-21T00:12:08;9.30;99.90
21207;DHT22;10761;48.532;8.026;2023-11-21T00:14:37;9.30;99.90
21207;DHT22;10761;48.532;8.026;2023-11-21T00:17:04;9.30;99.90
21207;DHT22;10761;48.532;8.026;2023-11-21T00:19:31;9.30;99.90
21207;DHT22;10761;48.532;8.026;2023-11-21T00:21:56;9.30;99.90
21207;DHT22;10761;48.532;8.026;2023-11-21T00:24:23;9.30;99.90
21207;DHT22;10761;48.532;8.026;2023-11-21T00:26:50;9.30;99.90
21207;DHT22;10761;48.532;8.026;2023-11-21T00:29:16;9.40;99.90
21207;DHT22;10761;48.532;8.026;2023-11-21T00:31:43;9.30;99.90
21207;DHT22;10761;48.532;8.026;2023-11-21T00:34:09;9.40;99.90
21207;DHT22;10761;48.532;8.026;2023-11-21T00:36:34;9.40;99.90
21207;DHT22;10761;48.532;8.026;2023-11-21T00:39:00;9.40;99.90
21207;DHT22;10761;48.532;8.026;2023-11-21T00:41:27;9.40;99.90
21207;DHT22;10761;48.532;8.026;2023-11-21T00:43:53;9.40;99.90
21207;DHT22;10761;48.532;8.026;2023-11-21T00:46:20;9.40;99.90
21207;DHT22;10761;48.532;8.026;2023-11-21T00:48:46;9.40;99.90
21207;DHT22;10761;48.532;8.026;2023-11-21T00:51:12;9.40;99.90
21207;DHT22;10761;48.532;8.026;2023-11-21T00:53:37;9.40;99.90
21207;DHT22;10761;48.532;8.026;2023-11-21T00:56:03;9.40;99.90
21207;DHT22;10761;48.532;8.026;2023-11-21T00:58:29;9.40;99.90
21207;DHT22;10761;48.532;8.026;2023-11-21T01:00:55;9.40;99.90
21207;DHT22;10761;48.532;8.026;2023-11-21T01:03:21;9.40;99.90
21207;DHT22;10761;48.532;8.026;2023-11-21T01:05:47;9.30;99.90
21207;DHT22;10761;48.532;8.026;2023-11-21T01:08:15;9.30;99.90
21207;DHT22;10761;48.532;8.026;2023-11-21T01:10:41;9.30;99.90
21207;DHT22;10761;48.532;8.026;2023-11-21T01:13:07;9.30;99.90
21207;DHT22;10761;48.532;8.026;2023-11-21T01:15:33;9.30;99.90
21207;DHT22;10761;48.532;8.026;2023-11-21T01:17:59;9.30;99.90
21207;DHT22;10761;48.532;8.026;2023-11-21T01:20:24;9.30;99.90
21207;DHT22;10761;48.532;8.026;2023-11-21T01:22:50;9.30;99.90
21207;DHT22;10761;48.532;8.026;2023-11-21T01:25:16;9.40;99.90
21207;DHT22;10761;48.532;8.026;2023-11-21T01:27:42;9.40;99.90
21207;DHT22;10761;48.532;8.026;2023-11-21T01:30:08;9.40;99.90
21207;DHT22;10761;48.532;8.026;2023-11-21T01:32:36;9.30;99.90
21207;DHT22;10761;48.532;8.026;2023-11-21T01:35:03;9.30;99.90
21207;DHT22;10761;48.532;8.026;2023-11-21T01:37:31;9.30;99.90
21207;DHT22;10761;48.532;8.026;2023-11-21T01:39:56;9.30;99.90
21207;DHT22;10761;48.532;8.026;2023-11-21T01:42:22;9.30;99.90
21207;DHT22;10761;48.532;8.026;2023-11-21T01:44:48;9.30;99.90
21207;DHT22;10761;48.532;8.026;2023-11-21T01:47:14;9.30;99.90
21207;DHT22;10761;48.532;8.026;2023-11-21T01:49:43;9.30;99.90
21207;DHT22;10761;48.532;8.026;2023-11-21T01:52:09;9.30;99.90
21207;DHT22;10761;48.532;8.026;2023-11-21T01:54:37;9.30;99.90
21207;DHT22;10761;48.532;8.026;2023-11-21T01:57:04;9.30;99.90
21207;DHT22;10761;48.532;8.026;2023-11-21T01:59:37;9.30;99.90
21207;DHT22;10761;48.532;8.026;2023-11-21T02:02:06;9.30;99.90
21207;DHT22;10761;48.532;8.026;2023-11-21T02:04:36;9.30;99.90
21207;DHT22;10761;48.532;8.026;2023-11-21T02:07:03;9.30;99.90
21207;DHT22;10761;48.532;8.026;2023-11-21T02:09:31;9.30;99.90
21207;DHT22;10761;48.532;8.026;2023-11-21T02:11:58;9.30;99.90
21207;DHT22;10761;48.532;8.026;2023-11-21T02:14:25;9.30;99.90
21207;DHT22;10761;48.532;8.026;2023-11-21T02:16:52;9.20;99.90
21207;DHT22;10761;48.532;8.026;2023-11-21T02:19:20;9.20;99.90
21207;DHT22;10761;48.532;8.026;2023-11-21T02:21:50;9.30;99.90
21207;DHT22;10761;48.532;8.026;2023-11-21T02:24:20;9.20;99.90
21207;DHT22;10761;48.532;8.026;2023-11-21T02:26:50;9.20;99.90
21207;DHT22;10761;48.532;8.026;2023-11-21T02:29:19;9.20;99.90
21207;DHT22;10761;48.532;8.026;2023-11-21T02:31:47;9.20;99.90
21207;DHT22;10761;48.532;8.026;2023-11-21T02:34:14;9.20;99.90
21207;DHT22;10761;48.532;8.026;2023-11-21T02:36:40;9.10;99.90
21207;DHT22;10761;48.532;8.026;2023-11-21T02:39:08;9.20;99.90
21207;DHT22;10761;48.532;8.026;2023-11-21T02:41:34;9.10;99.90
21207;DHT22;10761;48.532;8.026;2023-11-21T02:44:00;9.10;99.90
21207;DHT22;10761;48.532;8.026;2023-11-21T02:46:26;9.20;99.90
21207;DHT22;10761;48.532;8.026;2023-11-21T02:48:52;9.20;99.90
21207;DHT22;10761;48.532;8.026;2023-11-21T02:51:19;9.20;99.90
21207;DHT22;10761;48.532;8.026;2023-11-21T02:53:45;9.30;99.90
21207;DHT22;10761;48.532;8.026;2023-11-21T02:56:12;9.20;99.90
21207;DHT22;10761;48.532;8.026;2023-11-21T02:58:41;9.20;99.90
21207;DHT22;10761;48.532;8.026;2023-11-21T03:01:07;9.20;99.90
21207;DHT22;10761;48.532;8.026;2023-11-21T03:03:33;9.20;99.90
21207;DHT22;10761;48.532;8.026;2023-11-21T03:05:59;9.10;99.90
21207;DHT22;10761;48.532;8.026;2023-11-21T03:08:24;9.10;99.90
21207;DHT22;10761;48.532;8.026;2023-11-21T03:10:50;9.00;99.90
21207;DHT22;10761;48.532;8.026;2023-11-21T03:13:16;9.00;99.90
21207;DHT22;10761;48.532;8.026;2023-11-21T03:15:41;8.90;99.90
21207;DHT22;10761;48.532;8.026;2023-11-21T03:18:08;8.90;99.90
21207;DHT22;10761;48.532;8.026;2023-11-21T03:20:33;8.90;99.90
21207;DHT22;10761;48.532;8.026;2023-11-21T03:23:00;8.80;99.90
21207;DHT22;10761;48.532;8.026;2023-11-21T03:25:26;8.80;99.90
21207;DHT22;10761;48.532;8.026;2023-11-21T03:27:51;8.70;99.90
21207;DHT22;10761;48.532;8.026;2023-11-21T03:30:17;8.70;99.90
21207;DHT22;10761;48.532;8.026;2023-11-21T03:32:43;8.70;99.90
21207;DHT22;10761;48.532;8.026;2023-11-21T03:35:08;8.70;99.90
21207;DHT22;10761;48.532;8.026;2023-11-21T03:37:34;8.60;99.90
21207;DHT22;10761;48.532;8.026;2023-11-21T03:40:00;8.60;99.90
21207;DHT22;10761;48.532;8.026;2023-11-21T03:42:26;8.60;99.90
21207;DHT22;10761;48.532;8.026;2023-11-21T03:44:52;8.60;99.90
21207;DHT22;10761;48.532;8.026;2023-11-21T03:47:18;8.60;99.90
21207;DHT22;10761;48.532;8.026;2023-11-21T03:49:44;8.60;99.90
21207;DHT22;10761;48.532;8.026;2023-11-21T03:52:11;8.60;99.90
21207;DHT22;10761;48.532;8.026;2023-11-21T03:54:37;8.60;99.90
21207;DHT22;10761;48.532;8.026;2023-11-21T03:57:03;8.60;99.90
21207;DHT22;10761;48.532;8.026;2023-11-21T03:59:29;8.60;99.90
21207;DHT22;10761;48.532;8.026;2023-11-21T04:01:57;8.60;99.90
21207;DHT22;10761;48.532;8.026;2023-11-21T04:04:23;8.60;99.90
21207;DHT22;10761;48.532;8.026;2023-11-21T04:06:49;8.60;99.90
21207;DHT22;10761;48.532;8.026;2023-11-21T04:09:14;8.60;99.90
21207;DHT22;10761;48.532;8.026;2023-11-21T04:11:40;8.50;99.90
21207;DHT22;10761;48.532;8.026;2023-11-21T04:14:05;8.60;99.90
21207;DHT22;10761;48.532;8.026;2023-11-21T04:16:31;8.60;99.90
21207;DHT22;10761;48.532;8.026;2023-11-21T04:18:57;8.60;99.90
21207;DHT22;10761;48.532;8.026;2023-11-21T04:21:22;8.60;99.90
21207;DHT22;10761;48.532;8.026;2023-11-21T04:23:49;8.50;99.90
21207;DHT22;10761;48.532;8.026;2023-11-21T04:26:15;8.60;99.90
21207;DHT22;10761;48.532;8.026;2023-11-21T04:28:40;8.50;99.90
21207;DHT22;10761;48.532;8.026;2023-11-21T04:31:06;8.50;99.90
21207;DHT22;10761;48.532;8.026;2023-11-21T04:33:32;8.60;99.90
21207;DHT22;10761;48.532;8.026;2023-11-21T04:35:58;8.60;99.90
21207;DHT22;10761;48.532;8.026;2023-11-21T04:38:24;8.60;99.90
21207;DHT22;10761;48.532;8.026;2023-11-21T04:40:50;8.50;99.90
21207;DHT22;10761;48.532;8.026;2023-11-21T04:43:15;8.50;99.90
21207;DHT22;10761;48.532;8.026;2023-11-21T04:45:41;8.50;99.90
21207;DHT22;10761;48.532;8.026;2023-11-21T04:48:07;8.50;99.90
21207;DHT22;10761;48.532;8.026;2023-11-21T04:50:34;8.50;99.90
21207;DHT22;10761;48.532;8.026;2023-11-21T04:52:59;8.50;99.90
21207;DHT22;10761;48.532;8.026;2023-11-21T04:55:25;8.50;99.90
21207;DHT22;10761;48.532;8.026;2023-11-21T04:57:53;8.40;99.90
21207;DHT22;10761;48.532;8.026;2023-11-21T05:00:19;8.40;99.90
21207;DHT22;10761;48.532;8.026;2023-11-21T05:02:46;8.40;99.90
21207;DHT22;10761;48.532;8.026;2023-11-21T05:05:12;8.40;99.90
21207;DHT22;10761;48.532;8.026;2023-11-21T05:07:39;8.40;99.90
21207;DHT22;10761;48.532;8.026;2023-11-21T05:10:05;8.40;99.90
21207;DHT22;10761;48.532;8.026;2023-11-21T05:12:37;8.40;99.90
21207;DHT22;10761;48.532;8.026;2023-11-21T05:15:07;8.40;99.90
21207;DHT22;10761;48.532;8.026;2023-11-21T05:17:39;8.50;99.90
21207;DHT22;10761;48.532;8.026;2023-11-21T05:20:09;8.40;99.90
21207;DHT22;10761;48.532;8.026;2023-11-21T05:22:35;8.40;99.90
21207;DHT22;10761;48.532;8.026;2023-11-21T05:25:02;8.40;99.90
21207;DHT22;10761;48.532;8.026;2023-11-21T05:27:29;8.40;99.90
21207;DHT22;10761;48.532;8.026;2023-11-21T05:29:55;8.40;99.90
21207;DHT22;10761;48.532;8.026;2023-11-21T05:32:21;8.40;99.90
21207;DHT22;10761;48.532;8.026;2023-11-21T05:34:46;8.50;99.90
21207;DHT22;10761;48.532;8.026;2023-11-21T05:37:12;8.50;99.90
21207;DHT22;10761;48.532;8.026;2023-11-21T05:39:37;8.40;99.90
21207;DHT22;10761;48.532;8.026;2023-11-21T05:42:03;8.40;99.90
21207;DHT22;10761;48.532;8.026;2023-11-21T05:44:29;8.50;99.90
21207;DHT22;10761;48.532;8.026;2023-11-21T05:46:55;8.50;99.90
21207;DHT22;10761;48.532;8.026;2023-11-21T05:49:20;8.50;99.90
21207;DHT22;10761;48.532;8.026;2023-11-21T05:51:47;8.50;99.90
21207;DHT22;10761;48.532;8.026;2023-11-21T05:54:12;8.50;99.90
21207;DHT22;10761;48.532;8.026;2023-11-21T05:56:38;8.50;99.90
21207;DHT22;10761;48.532;8.026;2023-11-21T05:59:04;8.50;99.90
21207;DHT22;10761;48.532;8.026;2023-11-21T06:01:29;8.40;99.90
21207;DHT22;10761;48.532;8.026;2023-11-21T06:03:55;8.40;99.90
21207;DHT22;10761;48.532;8.026;2023-11-21T06:06:21;8.40;99.90
21207;DHT22;10761;48.532;8.026;2023-11-21T06:08:48;8.40;99.90
21207;DHT22;10761;48.532;8.026;2023-11-21T06:11:14;8.40;99.90
21207;DHT22;10761;48.532;8.026;2023-11-21T06:13:41;8.40;99.90
21207;DHT22;10761;48.532;8.026;2023-11-21T06:16:08;8.40;99.90
21207;DHT22;10761;48.532;8.026;2023-11-21T06:18:33;8.40;99.90
21207;DHT22;10761;48.532;8.026;2023-11-21T06:21:00;8.40;99.90
21207;DHT22;10761;48.532;8.026;2023-11-21T06:23:26;8.40;99.90
21207;DHT22;10761;48.532;8.026;2023-11-21T06:25:52;8.40;99.90
21207;DHT22;10761;48.532;8.026;2023-11-21T06:28:18;8.40;99.90
21207;DHT22;10761;48.532;8.026;2023-11-21T06:30:44;8.40;99.90
21207;DHT22;10761;48.532;8.026;2023-11-21T06:33:10;8.40;99.90
21207;DHT22;10761;48.532;8.026;2023-11-21T06:35:36;8.40;99.90
21207;DHT22;10761;48.532;8.026;2023-11-21T06:38:02;8.40;99.90
21207;DHT22;10761;48.532;8.026;2023-11-21T06:40:28;8.40;99.90
21207;DHT22;10761;48.532;8.026;2023-11-21T06:42:54;8.40;99.90
21207;DHT22;10761;48.532;8.026;2023-11-21T06:45:19;8.40;99.90
21207;DHT22;10761;48.532;8.026;2023-11-21T06:47:48;8.40;99.90
21207;DHT22;10761;48.532;8.026;2023-11-21T06:50:14;8.40;99.90
21207;DHT22;10761;48.532;8.026;2023-11-21T06:52:39;8.30;99.90
21207;DHT22;10761;48.532;8.026;2023-11-21T06:55:06;8.40;99.90
21207;DHT22;10761;48.532;8.026;2023-11-21T06:57:33;8.40;99.90
21207;DHT22;10761;48.532;8.026;2023-11-21T06:59:59;8.40;99.90
21207;DHT22;10761;48.532;8.026;2023-11-21T07:02:25;8.40;99.90
21207;DHT22;10761;48.532;8.026;2023-11-21T07:04:50;8.30;99.90
21207;DHT22;10761;48.532;8.026;2023-11-21T07:07:18;8.30;99.90
21207;DHT22;10761;48.532;8.026;2023-11-21T07:09:43;8.30;99.90
21207;DHT22;10761;48.532;8.026;2023-11-21T07:12:09;8.30;99.90
21207;DHT22;10761;48.532;8.026;2023-11-21T07:14:35;8.30;99.90
21207;DHT22;10761;48.532;8.026;2023-11-21T07:17:00;8.30;99.90
21207;DHT22;10761;48.532;8.026;2023-11-21T07:19:26;8.20;99.90
21207;DHT22;10761;48.532;8.026;2023-11-21T07:21:51;8.30;99.90
21207;DHT22;10761;48.532;8.026;2023-11-21T07:24:17;8.20;99.90
21207;DHT22;10761;48.532;8.026;2023-11-21T07:26:43;8.30;99.90
21207;DHT22;10761;48.532;8.026;2023-11-21T07:29:09;8.30;99.90
21207;DHT22;10761;48.532;8.026;2023-11-21T07:31:34;8.30;99.90
21207;DHT22;10761;48.532;8.026;2023-11-21T07:34:00;8.30;99.90
21207;DHT22;10761;48.532;8.026;2023-11-21T07:36:26;8.30;99.90
21207;DHT22;10761;48.532;8.026;2023-11-21T07:38:53;8.30;99.90
21207;DHT22;10761;48.532;8.026;2023-11-21T07:41:19;8.30;99.90
21207;DHT22;10761;48.532;8.026;2023-11-21T07:43:45;8.30;99.90
21207;DHT22;10761;48.532;8.026;2023-11-21T07:46:12;8.30;99.90
21207;DHT22;10761;48.532;8.026;2023-11-21T07:48:41;8.30;99.90
21207;DHT22;10761;48.532;8.026;2023-11-21T07:51:08;8.30;99.90
21207;DHT22;10761;48.532;8.026;2023-11-21T07:53:34;8.30;99.90
21207;DHT22;10761;48.532;8.026;2023-11-21T07:56:07;8.30;99.90
21207;DHT22;10761;48.532;8.026;2023-11-21T07:58:36;8.30;99.90
21207;DHT22;10761;48.532;8.026;2023-11-21T08:01:02;8.30;99.90
21207;DHT22;10761;48.532;8.026;2023-11-21T08:03:29;8.30;99.90
21207;DHT22;10761;48.532;8.026;2023-11-21T08:05:58;8.40;99.90
21207;DHT22;10761;48.532;8.026;2023-11-21T08:08:25;8.30;99.90
21207;DHT22;10761;48.532;8.026;2023-11-21T08:10:51;8.30;99.90
21207;DHT22;10761;48.532;8.026;2023-11-21T08:13:27;8.30;99.90
21207;DHT22;10761;48.532;8.026;2023-11-21T08:15:57;8.20;99.90
21207;DHT22;10761;48.532;8.026;2023-11-21T08:18:27;8.20;99.90
21207;DHT22;10761;48.532;8.026;2023-11-21T08:20:52;8.20;99.90
21207;DHT22;10761;48.532;8.026;2023-11-21T08:23:21;8.10;99.90
21207;DHT22;10761;48.532;8.026;2023-11-21T08:25:50;8.20;99.90
21207;DHT22;10761;48.532;8.026;2023-11-21T08:28:16;8.20;99.90
21207;DHT22;10761;48.532;8.026;2023-11-21T08:30:42;8.10;99.90
21207;DHT22;10761;48.532;8.026;2023-11-21T08:33:08;8.00;99.90
21207;DHT22;10761;48.532;8.026;2023-11-21T08:35:34;8.00;99.90
21207;DHT22;10761;48.532;8.026;2023-11-21T08:38:00;8.00;99.90
21207;DHT22;10761;48.532;8.026;2023-11-21T08:40:26;8.10;99.90
21207;DHT22;10761;48.532;8.026;2023-11-21T08:42:51;8.10;99.90
21207;DHT22;10761;48.532;8.026;2023-11-21T08:45:18;8.10;99.90
21207;DHT22;10761;48.532;8.026;2023-11-21T08:47:45;8.10;99.90
21207;DHT22;10761;48.532;8.026;2023-11-21T08:50:10;8.10;99.90
21207;DHT22;10761;48.532;8.026;2023-11-21T08:52:38;8.10;99.90
21207;DHT22;10761;48.532;8.026;2023-11-21T08:55:04;8.00;99.90
21207;DHT22;10761;48.532;8.026;2023-11-21T08:57:36;8.10;99.90
21207;DHT22;10761;48.532;8.026;2023-11-21T09:00:06;8.00;99.90
21207;DHT22;10761;48.532;8.026;2023-11-21T09:02:35;8.10;99.90
21207;DHT22;10761;48.532;8.026;2023-11-21T09:05:05;8.10;99.90
21207;DHT22;10761;48.532;8.026;2023-11-21T09:07:31;8.20;99.90
21207;DHT22;10761;48.532;8.026;2023-11-21T09:09:57;8.20;99.90
21207;DHT22;10761;48.532;8.026;2023-11-21T09:12:23;8.20;99.90
21207;DHT22;10761;48.532;8.026;2023-11-21T09:14:50;8.20;99.90
21207;DHT22;10761;48.532;8.026;2023-11-21T09:17:16;8.30;99.90
21207;DHT22;10761;48.532;8.026;2023-11-21T09:19:42;8.20;99.90
21207;DHT22;10761;48.532;8.026;2023-11-21T09:22:15;8.20;99.90
21207;DHT22;10761;48.532;8.026;2023-11-21T09:24:41;8.20;99.90
21207;DHT22;10761;48.532;8.026;2023-11-21T09:27:08;8.20;99.90
21207;DHT22;10761;48.532;8.026;2023-11-21T09:29:33;8.20;99.90
21207;DHT22;10761;48.532;8.026;2023-11-21T09:31:59;8.20;99.90
21207;DHT22;10761;48.532;8.026;2023-11-21T09:34:25;8.20;99.90
21207;DHT22;10761;48.532;8.026;2023-11-21T09:36:51;8.20;99.90
21207;DHT22;10761;48.532;8.026;2023-11-21T09:39:17;8.30;99.90
21207;DHT22;10761;48.532;8.026;2023-11-21T09:41:44;8.30;99.90
21207;DHT22;10761;48.532;8.026;2023-11-21T09:44:14;8.40;99.90
21207;DHT22;10761;48.532;8.026;2023-11-21T09:46:43;8.30;99.90
21207;DHT22;10761;48.532;8.026;2023-11-21T09:49:09;8.40;99.90
21207;DHT22;10761;48.532;8.026;2023-11-21T09:51:39;8.40;99.90
21207;DHT22;10761;48.532;8.026;2023-11-21T09:54:12;8.40;99.90
21207;DHT22;10761;48.532;8.026;2023-11-21T09:56:38;8.50;99.90
21207;DHT22;10761;48.532;8.026;2023-11-21T09:59:05;8.60;99.90
21207;DHT22;10761;48.532;8.026;2023-11-21T10:01:38;8.60;99.90
21207;DHT22;10761;48.532;8.026;2023-11-21T10:04:04;8.60;99.90
21207;DHT22;10761;48.532;8.026;2023-11-21T10:06:38;8.60;99.90
21207;DHT22;10761;48.532;8.026;2023-11-21T10:09:04;8.60;99.90
21207;DHT22;10761;48.532;8.026;2023-11-21T10:11:40;8.50;99.90
21207;DHT22;10761;48.532;8.026;2023-11-21T10:14:08;8.50;99.90
21207;DHT22;10761;48.532;8.026;2023-11-21T10:16:36;8.60;99.90
21207;DHT22;10761;48.532;8.026;2023-11-21T10:19:04;8.50;99.90
21207;DHT22;10761;48.532;8.026;2023-11-21T10:21:32;8.70;99.90
21207;DHT22;10761;48.532;8.026;2023-11-21T10:23:58;8.80;99.90
21207;DHT22;10761;48.532;8.026;2023-11-21T10:26:26;8.80;99.90
21207;DHT22;10761;48.532;8.026;2023-11-21T10:28:57;8.80;99.90
21207;DHT22;10761;48.532;8.026;2023-11-21T10:31:24;8.70;99.90
21207;DHT22;10761;48.532;8.026;2023-11-21T10:33:50;8.70;99.90
21207;DHT22;10761;48.532;8.026;2023-11-21T10:36:27;8.70;99.90
21207;DHT22;10761;48.532;8.026;2023-11-21T10:38:53;8.60;99.90
21207;DHT22;10761;48.532;8.026;2023-11-21T10:41:20;8.60;99.90
21207;DHT22;10761;48.532;8.026;2023-11-21T10:43:46;8.70;99.90
21207;DHT22;10761;48.532;8.026;2023-11-21T10:46:12;8.60;99.90
21207;DHT22;10761;48.532;8.026;2023-11-21T10:48:38;8.60;99.90
21207;DHT22;10761;48.532;8.026;2023-11-21T10:51:07;8.70;99.90
21207;DHT22;10761;48.532;8.026;2023-11-21T10:53:38;8.70;99.90
21207;DHT22;10761;48.532;8.026;2023-11-21T10:56:06;8.60;99.90
21207;DHT22;10761;48.532;8.026;2023-11-21T10:58:35;8.60;99.90
21207;DHT22;10761;48.532;8.026;2023-11-21T11:01:02;8.60;99.90
21207;DHT22;10761;48.532;8.026;2023-11-21T11:03:31;8.70;99.90
21207;DHT22;10761;48.532;8.026;2023-11-21T11:05:59;8.80;99.90
21207;DHT22;10761;48.532;8.026;2023-11-21T11:08:26;8.90;99.90
21207;DHT22;10761;48.532;8.026;2023-11-21T11:10:52;8.90;99.90
21207;DHT22;10761;48.532;8.026;2023-11-21T11:13:18;8.80;99.90
21207;DHT22;10761;48.532;8.026;2023-11-21T11:15:47;8.90;99.90
21207;DHT22;10761;48.532;8.026;2023-11-21T11:18:14;9.00;99.90
21207;DHT22;10761;48.532;8.026;2023-11-21T11:20:42;9.10;99.90
21207;DHT22;10761;48.532;8.026;2023-11-21T11:23:31;9.20;99.90
21207;DHT22;10761;48.532;8.026;2023-11-21T11:26:06;9.30;99.90
21207;DHT22;10761;48.532;8.026;2023-11-21T11:31:31;9.50;99.90
21207;DHT22;10761;48.532;8.026;2023-11-21T11:34:29;9.60;99.90
21207;DHT22;10761;48.532;8.026;2023-11-21T11:37:04;9.70;99.90
21207;DHT22;10761;48.532;8.026;2023-11-21T11:39:38;9.80;99.90
21207;DHT22;10761;48.532;8.026;2023-11-21T11:42:08;9.80;99.90
21207;DHT22;10761;48.532;8.026;2023-11-21T11:47:15;10.00;99.90
21207;DHT22;10761;48.532;8.026;2023-11-21T11:52:38;10.10;99.90
21207;DHT22;10761;48.532;8.026;2023-11-21T11:55:07;10.10;99.90
21207;DHT22;10761;48.532;8.026;2023-11-21T11:57:35;10.20;99.90
21207;DHT22;10761;48.532;8.026;2023-11-21T12:00:20;10.10;99.90
21207;DHT22;10761;48.532;8.026;2023-11-21T12:02:54;10.10;99.90
21207;DHT22;10761;48.532;8.026;2023-11-21T12:05:23;10.20;99.90
21207;DHT22;10761;48.532;8.026;2023-11-21T12:07:50;10.30;99.90
21207;DHT22;10761;48.532;8.026;2023-11-21T12:10:20;10.30;99.90
21207;DHT22;10761;48.532;8.026;2023-11-21T12:12:52;10.30;99.90
21207;DHT22;10761;48.532;8.026;2023-11-21T12:15:19;10.40;99.90
21207;DHT22;10761;48.532;8.026;2023-11-21T12:17:46;10.40;99.90
21207;DHT22;10761;48.532;8.026;2023-11-21T12:20:14;10.40;99.90
21207;DHT22;10761;48.532;8.026;2023-11-21T12:22:45;10.50;99.90
21207;DHT22;10761;48.532;8.026;2023-11-21T12:25:18;10.50;99.90
21207;DHT22;10761;48.532;8.026;2023-11-21T12:27:48;10.60;99.90
21207;DHT22;10761;48.532;8.026;2023-11-21T12:30:22;10.70;99.90
21207;DHT22;10761;48.532;8.026;2023-11-21T12:32:49;10.60;99.90
21207;DHT22;10761;48.532;8.026;2023-11-21T12:35:17;10.60;99.90
21207;DHT22;10761;48.532;8.026;2023-11-21T12:37:45;10.70;99.90
21207;DHT22;10761;48.532;8.026;2023-11-21T12:40:13;10.70;99.90
21207;DHT22;10761;48.532;8.026;2023-11-21T12:42:45;10.80;99.90
21207;DHT22;10761;48.532;8.026;2023-11-21T12:47:48;10.90;99.90
21207;DHT22;10761;48.532;8.026;2023-11-21T12:50:21;10.80;99.90
21207;DHT22;10761;48.532;8.026;2023-11-21T12:52:58;10.70;99.90
21207;DHT22;10761;48.532;8.026;2023-11-21T12:55:24;10.70;99.90
21207;DHT22;10761;48.532;8.026;2023-11-21T12:57:54;10.80;99.90
21207;DHT22;10761;48.532;8.026;2023-11-21T13:01:06;10.80;99.90
21207;DHT22;10761;48.532;8.026;2023-11-21T13:03:08;10.90;99.90
21207;DHT22;10761;48.532;8.026;2023-11-21T13:05:38;10.90;99.90
21207;DHT22;10761;48.532;8.026;2023-11-21T13:08:06;10.90;99.90
21207;DHT22;10761;48.532;8.026;2023-11-21T13:10:39;10.90;99.90
21207;DHT22;10761;48.532;8.026;2023-11-21T13:13:07;10.90;99.90
21207;DHT22;10761;48.532;8.026;2023-11-21T13:15:34;10.80;99.90
21207;DHT22;10761;48.532;8.026;2023-11-21T13:18:02;10.80;99.90
21207;DHT22;10761;48.532;8.026;2023-11-21T13:20:28;10.70;99.90
21207;DHT22;10761;48.532;8.026;2023-11-21T13:22:56;10.60;99.90
21207;DHT22;10761;48.532;8.026;2023-11-21T13:25:27;10.40;99.90
21207;DHT22;10761;48.532;8.026;2023-11-21T13:28:00;10.20;99.90
21207;DHT22;10761;48.532;8.026;2023-11-21T13:30:28;10.10;99.90
21207;DHT22;10761;48.532;8.026;2023-11-21T13:33:03;10.00;99.90
21207;DHT22;10761;48.532;8.026;2023-11-21T13:35:34;9.90;99.90
21207;DHT22;10761;48.532;8.026;2023-11-21T13:38:21;9.90;99.90
21207;DHT22;10761;48.532;8.026;2023-11-21T13:40:53;9.80;99.90
21207;DHT22;10761;48.532;8.026;2023-11-21T13:43:24;9.70;99.90
21207;DHT22;10761;48.532;8.026;2023-11-21T13:45:52;9.60;99.90
21207;DHT22;10761;48.532;8.026;2023-11-21T13:48:26;9.50;99.90
21207;DHT22;10761;48.532;8.026;2023-11-21T13:51:06;9.40;99.90
21207;DHT22;10761;48.532;8.026;2023-11-21T13:53:46;9.40;99.90
21207;DHT22;10761;48.532;8.026;2023-11-21T13:56:15;9.30;99.90
21207;DHT22;10761;48.532;8.026;2023-11-21T13:58:45;9.30;99.90
21207;DHT22;10761;48.532;8.026;2023-11-21T14:01:22;9.30;99.90
21207;DHT22;10761;48.532;8.026;2023-11-21T14:04:10;9.40;99.90
21207;DHT22;10761;48.532;8.026;2023-11-21T14:06:38;9.40;99.90
21207;DHT22;10761;48.532;8.026;2023-11-21T14:09:23;9.50;99.90
21207;DHT22;10761;48.532;8.026;2023-11-21T14:12:01;9.50;99.90
21207;DHT22;10761;48.532;8.026;2023-11-21T14:14:31;9.60;99.90
21207;DHT22;10761;48.532;8.026;2023-11-21T14:16:57;9.60;99.90
21207;DHT22;10761;48.532;8.026;2023-11-21T14:19:24;9.70;99.90
21207;DHT22;10761;48.532;8.026;2023-11-21T14:21:55;9.70;99.90
21207;DHT22;10761;48.532;8.026;2023-11-21T14:24:21;9.70;99.90
21207;DHT22;10761;48.532;8.026;2023-11-21T14:26:49;9.70;99.90
21207;DHT22;10761;48.532;8.026;2023-11-21T14:29:16;9.70;99.90
21207;DHT22;10761;48.532;8.026;2023-11-21T14:31:45;9.60;99.90
21207;DHT22;10761;48.532;8.026;2023-11-21T14:34:11;9.60;99.90
21207;DHT22;10761;48.532;8.026;2023-11-21T14:36:38;9.50;99.90
21207;DHT22;10761;48.532;8.026;2023-11-21T14:39:04;9.50;99.90
21207;DHT22;10761;48.532;8.026;2023-11-21T14:41:36;9.50;99.90
21207;DHT22;10761;48.532;8.026;2023-11-21T14:44:03;9.40;99.90
21207;DHT22;10761;48.532;8.026;2023-11-21T14:46:30;9.30;99.90
21207;DHT22;10761;48.532;8.026;2023-11-21T14:48:56;9.30;99.90
21207;DHT22;10761;48.532;8.026;2023-11-21T14:51:28;9.30;99.90
21207;DHT22;10761;48.532;8.026;2023-11-21T14:53:58;9.20;99.90
21207;DHT22;10761;48.532;8.026;2023-11-21T14:56:32;9.20;99.90
21207;DHT22;10761;48.532;8.026;2023-11-21T14:59:00;9.20;99.90
21207;DHT22;10761;48.532;8.026;2023-11-21T15:01:32;9.20;99.90
21207;DHT22;10761;48.532;8.026;2023-11-21T15:04:10;9.20;99.90
21207;DHT22;10761;48.532;8.026;2023-11-21T15:07:05;9.30;99.90
21207;DHT22;10761;48.532;8.026;2023-11-21T15:09:31;9.30;99.90
21207;DHT22;10761;48.532;8.026;2023-11-21T15:12:01;9.20;99.90
21207;DHT22;10761;48.532;8.026;2023-11-21T15:14:43;9.30;99.90
21207;DHT22;10761;48.532;8.026;2023-11-21T15:17:11;9.30;99.90
21207;DHT22;10761;48.532;8.026;2023-11-21T15:19:41;9.20;99.90
21207;DHT22;10761;48.532;8.026;2023-11-21T15:22:07;9.30;99.90
21207;DHT22;10761;48.532;8.026;2023-11-21T15:24:33;9.20;99.90
21207;DHT22;10761;48.532;8.026;2023-11-21T15:26:59;9.30;99.90
21207;DHT22;10761;48.532;8.026;2023-11-21T15:29:25;9.30;99.90
21207;DHT22;10761;48.532;8.026;2023-11-21T15:31:51;9.20;99.90
21207;DHT22;10761;48.532;8.026;2023-11-21T15:34:21;9.20;99.90
21207;DHT22;10761;48.532;8.026;2023-11-21T15:36:47;9.20;99.90
21207;DHT22;10761;48.532;8.026;2023-11-21T15:39:16;9.30;99.90
21207;DHT22;10761;48.532;8.026;2023-11-21T15:41:41;9.30;99.90
21207;DHT22;10761;48.532;8.026;2023-11-21T15:44:07;9.20;99.90
21207;DHT22;10761;48.532;8.026;2023-11-21T15:46:36;9.20;99.90
21207;DHT22;10761;48.532;8.026;2023-11-21T15:49:04;9.20;99.90
21207;DHT22;10761;48.532;8.026;2023-11-21T15:51:42;9.20;99.90
21207;DHT22;10761;48.532;8.026;2023-11-21T15:54:09;9.10;99.90
21207;DHT22;10761;48.532;8.026;2023-11-21T15:56:35;9.10;99.90
21207;DHT22;10761;48.532;8.026;2023-11-21T15:59:01;9.10;99.90
21207;DHT22;10761;48.532;8.026;2023-11-21T16:01:27;9.00;99.90